Time;durP1;ratioP1;P1;durP2;ratioP2;P2;SDS_P1;SDS_P2;PMS_P1;PMS_P2;Temp;Humidity;BMP_temperature;BMP_pressure;BME280_temperature;BME280_humidity;BME280_pressure;Samples;Min_cycle;Max_cycle;Signal;HPM_P1;HPM_P2
2021/05/20 00:02:09;;;;;;;25.15;16.52;;;10.40;99.90;;;;;;4957664;28;20054;-79
2021/05/20 00:04:36;;;;;;;21.58;14.95;;;10.40;99.90;;;;;;4957260;29;20186;-82
2021/05/20 00:07:02;;;;;;;21.90;15.63;;;10.40;99.90;;;;;;4957703;29;20118;-80
2021/05/20 00:09:29;;;;;;;21.10;16.85;;;10.30;99.90;;;;;;4957858;29;20094;-79
2021/05/20 00:14:31;;;;;;;25.17;18.30;;;10.30;99.90;;;;;;5397430;23;20043;-79
2021/05/20 00:16:58;;;;;;;23.45;17.15;;;10.30;99.90;;;;;;4972400;28;20050;-77
2021/05/20 00:19:24;;;;;;;23.27;17.80;;;10.40;99.90;;;;;;4973847;28;20110;-78
2021/05/20 00:21:51;;;;;;;25.55;18.65;;;10.40;99.90;;;;;;4974483;28;20051;-77
2021/05/20 00:24:18;;;;;;;25.40;18.13;;;10.40;99.90;;;;;;4973925;28;20162;-77
2021/05/20 00:26:45;;;;;;;24.92;19.58;;;10.50;99.90;;;;;;4997189;23;20526;-80
2021/05/20 00:29:11;;;;;;;23.98;18.63;;;10.50;99.90;;;;;;4976754;28;20512;-80
2021/05/20 00:31:37;;;;;;;25.48;18.55;;;10.60;99.90;;;;;;4977323;28;20050;-79
2021/05/20 00:34:05;;;;;;;26.48;18.48;;;10.60;99.90;;;;;;4976846;28;20082;-79
2021/05/20 00:36:32;;;;;;;25.30;19.17;;;10.60;99.90;;;;;;4985818;28;20137;-79
2021/05/20 00:38:58;;;;;;;24.98;19.17;;;10.60;99.90;;;;;;4997242;28;20050;-79
2021/05/20 00:41:25;;;;;;;24.33;19.27;;;10.60;99.90;;;;;;4997056;28;20050;-78
2021/05/20 00:43:51;;;;;;;23.75;18.02;;;10.70;99.90;;;;;;4996367;28;20046;-81
2021/05/20 00:46:18;;;;;;;26.58;19.58;;;10.70;99.90;;;;;;5003043;28;20127;-78
2021/05/20 00:48:44;;;;;;;25.73;19.77;;;10.70;99.90;;;;;;4995772;28;20085;-77
2021/05/20 00:51:11;;;;;;;24.80;19.98;;;10.70;99.90;;;;;;4995845;28;20104;-79
2021/05/20 00:53:38;;;;;;;23.95;20.20;;;10.80;99.90;;;;;;4995497;28;20478;-78
2021/05/20 00:56:06;;;;;;;27.85;20.77;;;10.90;99.90;;;;;;4996175;28;20084;-78
2021/05/20 00:58:33;;;;;;;27.67;20.15;;;10.90;99.90;;;;;;4995853;28;20042;-80
2021/05/20 01:00:59;;;;;;;26.27;21.25;;;10.90;99.90;;;;;;4996650;28;20129;-78
2021/05/20 01:03:26;;;;;;;24.52;19.55;;;10.90;99.90;;;;;;4996604;28;20105;-80
2021/05/20 01:05:54;;;;;;;27.70;21.30;;;10.90;99.90;;;;;;4996887;28;20086;-81
2021/05/20 01:08:21;;;;;;;25.50;20.58;;;10.90;99.90;;;;;;4995998;28;20502;-80
2021/05/20 01:10:48;;;;;;;29.23;22.55;;;10.90;99.90;;;;;;4996414;28;20196;-79
2021/05/20 01:13:14;;;;;;;33.78;22.73;;;10.90;99.90;;;;;;4996268;28;20053;-80
2021/05/20 01:15:41;;;;;;;33.30;23.55;;;10.90;99.90;;;;;;4997323;28;20054;-80
2021/05/20 01:18:07;;;;;;;34.65;22.88;;;11.00;99.90;;;;;;4999830;28;20054;-79
2021/05/20 01:20:36;;;;;;;32.63;24.40;;;10.90;99.90;;;;;;5000141;28;20057;-79
2021/05/20 01:23:05;;;;;;;34.53;25.33;;;10.90;99.90;;;;;;4999502;28;20589;-80
2021/05/20 01:25:32;;;;;;;38.22;26.40;;;10.90;99.90;;;;;;4999364;28;20137;-80
2021/05/20 01:28:03;;;;;;;35.67;26.25;;;10.80;99.90;;;;;;4999497;28;20073;-80
2021/05/20 01:30:30;;;;;;;38.47;26.83;;;10.90;99.90;;;;;;4999578;28;20072;-80
2021/05/20 01:32:57;;;;;;;43.72;27.50;;;10.90;99.90;;;;;;4998042;28;20146;-80
2021/05/20 01:35:23;;;;;;;39.25;27.50;;;10.90;99.90;;;;;;4999576;28;20088;-81
2021/05/20 01:37:52;;;;;;;35.58;27.42;;;10.90;99.90;;;;;;4999700;28;20133;-82
2021/05/20 01:40:19;;;;;;;40.03;26.30;;;10.90;99.90;;;;;;4999143;28;20054;-79
2021/05/20 01:42:45;;;;;;;39.25;25.85;;;10.90;99.90;;;;;;4998577;28;20133;-78
2021/05/20 01:45:11;;;;;;;34.90;26.02;;;10.80;99.90;;;;;;4999353;28;20121;-80
2021/05/20 01:47:38;;;;;;;35.10;24.75;;;10.80;99.90;;;;;;4998177;28;20061;-79
2021/05/20 01:50:05;;;;;;;34.33;24.50;;;10.70;99.90;;;;;;4997058;28;20133;-78
2021/05/20 01:52:32;;;;;;;31.75;23.10;;;10.60;99.90;;;;;;4995986;28;20100;-76
2021/05/20 01:54:59;;;;;;;33.65;23.58;;;10.60;99.90;;;;;;4987536;28;20133;-78
2021/05/20 01:57:25;;;;;;;36.13;24.65;;;10.50;99.90;;;;;;4995784;28;20081;-77
2021/05/20 01:59:52;;;;;;;31.33;24.38;;;10.50;99.90;;;;;;4995715;28;20046;-77
2021/05/20 02:02:18;;;;;;;33.72;24.05;;;10.50;99.90;;;;;;4995787;28;20092;-77
2021/05/20 02:04:44;;;;;;;30.20;23.05;;;10.50;99.90;;;;;;4995520;28;20137;-78
2021/05/20 02:07:11;;;;;;;28.25;21.77;;;10.50;99.90;;;;;;4995605;28;20133;-78
2021/05/20 02:09:37;;;;;;;27.58;20.85;;;10.40;99.90;;;;;;4995814;28;20112;-78
2021/05/20 02:12:05;;;;;;;27.27;19.75;;;10.40;99.90;;;;;;4995780;28;20101;-78
2021/05/20 02:14:32;;;;;;;28.73;20.00;;;10.40;99.90;;;;;;4996185;28;20137;-79
2021/05/20 02:16:58;;;;;;;28.85;21.30;;;10.40;99.90;;;;;;4996667;28;20172;-78
2021/05/20 02:19:25;;;;;;;28.55;22.88;;;10.50;99.90;;;;;;4996292;28;20082;-77
2021/05/20 02:21:51;;;;;;;32.50;24.50;;;10.50;99.90;;;;;;4995947;28;20058;-80
2021/05/20 02:24:18;;;;;;;40.05;28.63;;;10.50;99.90;;;;;;4994981;28;20061;-78
2021/05/20 02:26:44;;;;;;;38.75;27.92;;;10.60;99.90;;;;;;4994828;28;20133;-79
2021/05/20 02:29:11;;;;;;;32.00;24.67;;;10.70;99.90;;;;;;4997557;28;20046;-78
2021/05/20 02:31:38;;;;;;;27.52;22.52;;;10.70;99.90;;;;;;4997666;28;20137;-79
2021/05/20 02:34:04;;;;;;;29.88;23.83;;;10.60;99.90;;;;;;4996722;28;20618;-79
2021/05/20 02:36:30;;;;;;;31.75;22.27;;;10.60;99.90;;;;;;4997616;28;20096;-79
2021/05/20 02:38:57;;;;;;;26.75;21.48;;;10.50;99.90;;;;;;4997128;28;20129;-79
2021/05/20 02:41:23;;;;;;;27.33;21.17;;;10.60;99.90;;;;;;4997843;28;20557;-78
2021/05/20 02:43:49;;;;;;;30.05;22.23;;;10.60;99.90;;;;;;4996809;28;20502;-79
2021/05/20 02:46:17;;;;;;;28.70;20.95;;;10.50;99.90;;;;;;4997054;28;20050;-78
2021/05/20 02:48:43;;;;;;;29.33;20.95;;;10.50;99.90;;;;;;4996750;28;20085;-79
2021/05/20 02:51:10;;;;;;;29.27;22.95;;;10.50;99.90;;;;;;4997599;28;20454;-78
2021/05/20 02:53:37;;;;;;;29.05;23.55;;;10.50;99.90;;;;;;4996909;28;20096;-78
2021/05/20 02:56:03;;;;;;;31.55;25.30;;;10.40;99.90;;;;;;4996154;28;20077;-79
2021/05/20 02:58:30;;;;;;;35.17;25.60;;;10.40;99.90;;;;;;4995231;28;20054;-78
2021/05/20 03:00:57;;;;;;;31.02;24.38;;;10.30;99.90;;;;;;4995352;28;20129;-78
2021/05/20 03:03:24;;;;;;;34.50;26.25;;;10.30;99.90;;;;;;4994365;28;20057;-77
2021/05/20 03:05:52;;;;;;;34.47;26.20;;;10.30;99.90;;;;;;4995223;28;20481;-77
2021/05/20 03:08:19;;;;;;;38.22;28.08;;;10.30;99.90;;;;;;4995267;28;20058;-78
2021/05/20 03:10:45;;;;;;;38.30;27.50;;;10.20;99.90;;;;;;4994727;28;20134;-78
2021/05/20 03:13:11;;;;;;;41.33;29.25;;;10.20;99.90;;;;;;4996201;28;20137;-77
2021/05/20 03:15:38;;;;;;;42.03;30.80;;;10.20;99.90;;;;;;4996680;28;20131;-78
2021/05/20 03:18:05;;;;;;;43.42;31.15;;;10.20;99.90;;;;;;4996305;28;20046;-78
2021/05/20 03:20:32;;;;;;;42.28;31.17;;;10.20;99.90;;;;;;4995745;28;20105;-78
2021/05/20 03:22:59;;;;;;;40.05;28.58;;;10.30;99.90;;;;;;4995596;28;20144;-78
2021/05/20 03:25:25;;;;;;;43.25;30.65;;;10.30;99.90;;;;;;4996292;28;20133;-78
2021/05/20 03:27:52;;;;;;;43.05;30.55;;;10.30;99.90;;;;;;4996481;28;20137;-78
2021/05/20 03:30:19;;;;;;;43.72;30.13;;;10.30;99.90;;;;;;4995762;28;20125;-78
2021/05/20 03:32:45;;;;;;;45.13;31.88;;;10.30;99.90;;;;;;4995657;28;20046;-79
2021/05/20 03:35:12;;;;;;;45.17;31.20;;;10.20;99.90;;;;;;4995028;28;20137;-79
2021/05/20 03:37:40;;;;;;;45.88;32.10;;;10.20;99.90;;;;;;4994599;28;20054;-79
2021/05/20 03:40:07;;;;;;;46.63;32.38;;;10.30;99.90;;;;;;4998453;28;20073;-78
2021/05/20 03:42:34;;;;;;;50.05;35.50;;;10.30;99.90;;;;;;4998269;28;20554;-79
2021/05/20 03:45:01;;;;;;;46.67;34.42;;;10.40;99.90;;;;;;4997475;28;20422;-79
2021/05/20 03:47:27;;;;;;;50.25;34.30;;;10.40;99.90;;;;;;4997840;28;20073;-79
2021/05/20 03:49:53;;;;;;;54.95;35.50;;;10.40;99.90;;;;;;4997687;28;20106;-79
2021/05/20 03:52:20;;;;;;;56.15;35.63;;;10.40;99.90;;;;;;4998365;28;20190;-80
2021/05/20 03:54:48;;;;;;;53.25;37.13;;;10.40;99.90;;;;;;4998199;28;20054;-80
2021/05/20 03:57:14;;;;;;;54.47;38.25;;;10.40;99.90;;;;;;4998070;28;20129;-78
2021/05/20 03:59:41;;;;;;;55.05;39.15;;;10.40;99.90;;;;;;4998232;28;20046;-79
2021/05/20 04:02:08;;;;;;;62.20;40.97;;;10.40;99.90;;;;;;4997285;28;20058;-79
2021/05/20 04:04:34;;;;;;;62.30;42.65;;;10.40;99.90;;;;;;4997679;28;20137;-81
2021/05/20 04:07:01;;;;;;;65.57;43.13;;;10.40;99.90;;;;;;4997976;28;20086;-81
2021/05/20 04:09:28;;;;;;;67.05;43.92;;;10.40;99.90;;;;;;4999171;28;20472;-81
2021/05/20 04:11:55;;;;;;;67.57;44.92;;;10.40;99.90;;;;;;4998428;28;20127;-80
2021/05/20 04:14:21;;;;;;;68.32;45.55;;;10.40;99.90;;;;;;4996612;28;20133;-82
2021/05/20 04:16:48;;;;;;;64.85;43.75;;;10.40;99.90;;;;;;4998190;28;20051;-81
2021/05/20 04:19:15;;;;;;;63.75;43.95;;;10.60;99.90;;;;;;4998721;28;20502;-81
2021/05/20 04:21:42;;;;;;;63.65;43.47;;;10.60;99.90;;;;;;5000508;28;20054;-81
2021/05/20 04:24:09;;;;;;;64.22;43.70;;;10.70;99.90;;;;;;4998358;28;20387;-81
2021/05/20 04:26:35;;;;;;;66.63;45.55;;;10.70;99.90;;;;;;4997426;28;20141;-82
2021/05/20 04:29:03;;;;;;;63.88;44.55;;;10.70;99.90;;;;;;4997213;28;20052;-81
2021/05/20 04:31:32;;;;;;;68.45;46.08;;;10.80;99.90;;;;;;4996651;28;20133;-81
2021/05/20 04:33:58;;;;;;;71.10;47.00;;;10.80;99.90;;;;;;4996619;28;20058;-82
2021/05/20 04:36:24;;;;;;;68.28;48.25;;;10.90;99.90;;;;;;4996743;28;20195;-81
2021/05/20 04:38:50;;;;;;;67.15;47.03;;;11.10;99.90;;;;;;4997423;28;20417;-81
2021/05/20 04:41:17;;;;;;;62.72;46.08;;;11.10;99.90;;;;;;4996849;28;20133;-81
2021/05/20 04:43:43;;;;;;;57.75;42.58;;;11.30;99.90;;;;;;4996688;28;20082;-82
2021/05/20 04:46:10;;;;;;;52.85;39.75;;;11.60;99.90;;;;;;4996657;28;20106;-79
2021/05/20 04:48:37;;;;;;;51.03;37.42;;;11.80;99.90;;;;;;4997814;28;20081;-80
2021/05/20 04:51:03;;;;;;;51.33;38.90;;;11.90;99.90;;;;;;5000652;28;20106;-80
2021/05/20 04:53:30;;;;;;;52.60;38.60;;;12.00;99.90;;;;;;5001596;28;20129;-78
2021/05/20 04:55:56;;;;;;;59.58;41.05;;;12.00;99.90;;;;;;5001754;28;20046;-79
2021/05/20 04:58:22;;;;;;;56.70;39.63;;;11.90;99.90;;;;;;4999519;28;20133;-78
2021/05/20 05:00:49;;;;;;;65.88;41.42;;;11.80;99.90;;;;;;4999072;28;20137;-80
2021/05/20 05:03:16;;;;;;;60.10;42.25;;;11.70;99.90;;;;;;4999861;28;20482;-80
2021/05/20 05:05:43;;;;;;;67.00;42.88;;;11.60;99.90;;;;;;5001324;28;20074;-79
2021/05/20 05:08:09;;;;;;;64.63;42.67;;;11.50;99.90;;;;;;5000546;28;20133;-79
2021/05/20 05:10:35;;;;;;;62.42;42.50;;;11.40;99.90;;;;;;5001030;28;20082;-79
2021/05/20 05:13:02;;;;;;;65.95;43.88;;;11.40;99.90;;;;;;4998032;28;20086;-77
2021/05/20 05:15:28;;;;;;;72.32;45.45;;;11.40;99.90;;;;;;4997589;28;20149;-78
2021/05/20 05:17:55;;;;;;;75.15;48.40;;;11.30;99.90;;;;;;4996473;28;20089;-77
2021/05/20 05:20:22;;;;;;;78.10;48.42;;;11.30;99.90;;;;;;4996396;28;20088;-75
2021/05/20 05:22:49;;;;;;;75.70;47.53;;;11.20;99.90;;;;;;4995885;28;20086;-78
2021/05/20 05:25:15;;;;;;;78.57;49.17;;;11.10;99.90;;;;;;4995781;28;20046;-78
2021/05/20 05:27:41;;;;;;;80.15;47.50;;;11.10;99.90;;;;;;4995637;28;20124;-77
2021/05/20 05:30:08;;;;;;;79.22;49.25;;;11.20;99.90;;;;;;4997249;28;20046;-79
2021/05/20 05:32:35;;;;;;;80.78;50.17;;;11.30;99.90;;;;;;4996452;28;20149;-78
2021/05/20 05:35:01;;;;;;;71.80;46.10;;;11.40;99.90;;;;;;4995703;28;20574;-78
2021/05/20 05:37:28;;;;;;;74.65;46.95;;;11.50;99.90;;;;;;4995557;28;20129;-78
2021/05/20 05:39:55;;;;;;;70.70;43.53;;;11.60;99.90;;;;;;4995505;28;20133;-80
2021/05/20 05:42:21;;;;;;;73.28;44.80;;;11.60;99.90;;;;;;4996715;28;20537;-78
2021/05/20 05:44:48;;;;;;;69.45;43.40;;;11.50;99.90;;;;;;4996744;28;20524;-79
2021/05/20 05:47:14;;;;;;;75.93;44.40;;;11.50;99.90;;;;;;4997410;28;20114;-80
2021/05/20 05:49:44;;;;;;;75.90;45.97;;;11.50;99.90;;;;;;4998639;28;20110;-79
2021/05/20 05:52:17;;;;;;;74.10;46.05;;;11.40;99.90;;;;;;4998215;28;20402;-79
2021/05/20 05:54:44;;;;;;;73.18;45.60;;;11.40;99.90;;;;;;4998690;28;20074;-80
2021/05/20 05:57:10;;;;;;;69.85;45.78;;;11.40;99.90;;;;;;4998455;28;20074;-80
2021/05/20 05:59:37;;;;;;;75.95;46.83;;;11.40;99.90;;;;;;4998981;28;20097;-79
2021/05/20 06:02:03;;;;;;;74.40;46.50;;;11.50;99.90;;;;;;4998630;28;20216;-80
2021/05/20 06:04:31;;;;;;;72.43;44.53;;;11.50;99.90;;;;;;5000535;28;20138;-80
2021/05/20 06:06:58;;;;;;;72.57;45.08;;;11.50;99.90;;;;;;4999607;28;20050;-79
2021/05/20 06:09:24;;;;;;;73.88;44.13;;;11.50;99.90;;;;;;4998569;28;20121;-80
2021/05/20 06:11:51;;;;;;;63.38;42.13;;;11.60;99.90;;;;;;4998906;28;20137;-81
2021/05/20 06:14:18;;;;;;;59.45;39.55;;;11.70;99.90;;;;;;4998781;28;20142;-80
2021/05/20 06:16:47;;;;;;;60.30;37.53;;;11.70;99.90;;;;;;4999696;28;20093;-78
2021/05/20 06:19:13;;;;;;;65.28;39.60;;;11.70;99.90;;;;;;5001724;28;20138;-79
2021/05/20 06:21:40;;;;;;;63.65;39.75;;;11.80;99.90;;;;;;4999599;28;20054;-81
2021/05/20 06:24:07;;;;;;;53.40;34.53;;;11.70;99.90;;;;;;4998727;28;20129;-80
2021/05/20 06:26:34;;;;;;;50.33;34.28;;;11.80;99.90;;;;;;4982245;28;20078;-81
2021/05/20 06:29:01;;;;;;;45.53;31.73;;;11.90;99.90;;;;;;4989454;28;20052;-81
2021/05/20 06:31:28;;;;;;;44.80;30.02;;;12.00;99.90;;;;;;4996688;28;20054;-81
2021/05/20 06:33:55;;;;;;;47.80;33.03;;;12.10;99.90;;;;;;5012052;28;20050;-80
2021/05/20 06:36:22;;;;;;;45.20;31.67;;;12.20;99.90;;;;;;5003224;28;20133;-80
2021/05/20 06:38:49;;;;;;;47.75;32.95;;;12.30;99.90;;;;;;5016448;28;20085;-81
2021/05/20 06:41:15;;;;;;;44.33;33.13;;;12.40;99.90;;;;;;5020468;28;20056;-81
2021/05/20 06:43:45;;;;;;;47.63;33.63;;;12.60;99.90;;;;;;5021046;28;20137;-82
2021/05/20 06:46:12;;;;;;;44.65;32.22;;;12.60;99.90;;;;;;5022509;28;20061;-80
2021/05/20 06:48:39;;;;;;;44.97;31.77;;;12.60;99.90;;;;;;5021839;28;20049;-81
2021/05/20 06:51:05;;;;;;;41.60;29.70;;;12.70;99.90;;;;;;5021983;28;20057;-81
2021/05/20 06:53:35;;;;;;;39.38;28.92;;;12.80;99.90;;;;;;5023710;28;20128;-82
2021/05/20 06:56:04;;;;;;;40.85;28.83;;;12.70;99.90;;;;;;5023195;28;20077;-82
2021/05/20 07:01:16;;;;;;;41.65;29.92;;;12.90;99.90;;;;;;5023323;28;20057;-80
2021/05/20 07:03:43;;;;;;;41.83;30.63;;;13.10;99.90;;;;;;5025820;28;20106;-80
2021/05/20 07:06:13;;;;;;;41.30;29.67;;;13.20;99.90;;;;;;5022188;28;20049;-79
2021/05/20 07:08:40;;;;;;;40.35;30.23;;;13.30;99.90;;;;;;5026743;28;20049;-82
2021/05/20 07:11:07;;;;;;;42.35;30.88;;;13.30;99.90;;;;;;5023309;28;20049;-82
2021/05/20 07:13:33;;;;;;;40.63;30.20;;;13.30;99.90;;;;;;5022443;28;20153;-83
2021/05/20 07:16:00;;;;;;;42.13;30.52;;;13.40;99.90;;;;;;5020569;28;20076;-81
2021/05/20 07:18:27;;;;;;;41.42;30.30;;;13.30;99.90;;;;;;5020875;28;20054;-82
2021/05/20 07:20:54;;;;;;;39.47;28.25;;;13.20;99.90;;;;;;5022810;28;20045;-84
2021/05/20 07:23:22;;;;;;;38.42;27.40;;;13.20;99.90;;;;;;5021558;28;20516;-82
2021/05/20 07:25:49;;;;;;;35.03;26.73;;;13.30;99.90;;;;;;5020850;28;20060;-81
2021/05/20 07:28:19;;;;;;;36.90;26.75;;;13.40;99.90;;;;;;5022079;28;20058;-81
2021/05/20 07:30:48;;;;;;;36.92;26.30;;;13.40;99.90;;;;;;5020806;28;20058;-80
2021/05/20 07:33:15;;;;;;;39.40;27.48;;;13.40;99.90;;;;;;5019686;28;20049;-80
2021/05/20 07:35:42;;;;;;;32.80;25.58;;;13.40;99.90;;;;;;5019965;28;20085;-83
2021/05/20 07:38:09;;;;;;;36.88;25.60;;;13.60;99.90;;;;;;5018814;28;20137;-79
2021/05/20 07:40:35;;;;;;;32.28;25.67;;;13.70;99.90;;;;;;5028699;28;20049;-84
2021/05/20 07:43:02;;;;;;;29.67;23.63;;;13.80;99.90;;;;;;5029887;28;20065;-84
2021/05/20 07:45:28;;;;;;;28.58;22.77;;;14.00;99.90;;;;;;5032569;28;20057;-84
2021/05/20 07:47:55;;;;;;;28.90;22.73;;;14.20;99.90;;;;;;5032421;28;20046;-84
2021/05/20 07:50:21;;;;;;;28.08;21.58;;;14.40;99.90;;;;;;5031544;28;20072;-84
2021/05/20 07:52:58;;;;;;;26.33;21.52;;;14.50;99.90;;;;;;5032290;28;20038;-86
2021/05/20 07:55:29;;;;;;;24.52;19.83;;;14.90;99.90;;;;;;5035623;28;20088;-86
2021/05/20 07:57:58;;;;;;;26.80;19.60;;;15.60;99.90;;;;;;5037764;28;20037;-86
2021/05/20 08:00:24;;;;;;;30.05;21.85;;;15.50;99.90;;;;;;5037356;28;20081;-83
2021/05/20 08:02:57;;;;;;;25.98;21.25;;;15.70;99.90;;;;;;5036687;28;20034;-87
2021/05/20 08:05:28;;;;;;;28.42;21.55;;;15.90;99.90;;;;;;5036555;28;20049;-85
2021/05/20 08:07:58;;;;;;;26.13;20.05;;;16.10;99.90;;;;;;5030535;28;20053;-82
2021/05/20 08:13:05;;;;;;;26.23;21.05;;;16.00;99.90;;;;;;5022061;28;20052;-85
2021/05/20 08:15:32;;;;;;;26.80;20.30;;;15.90;99.90;;;;;;5025052;28;20058;-84
2021/05/20 08:17:58;;;;;;;25.48;21.00;;;15.90;99.90;;;;;;5024246;28;20054;-84
2021/05/20 08:20:25;;;;;;;28.10;21.55;;;15.90;99.90;;;;;;5021421;28;20108;-82
2021/05/20 08:22:51;;;;;;;25.40;21.30;;;15.70;99.90;;;;;;5024762;28;20149;-84
2021/05/20 08:25:18;;;;;;;27.27;20.17;;;15.70;99.90;;;;;;5025109;28;20145;-84
2021/05/20 08:27:45;;;;;;;26.83;20.50;;;15.70;99.90;;;;;;5028552;28;20077;-85
2021/05/20 08:30:12;;;;;;;27.92;22.13;;;16.00;99.90;;;;;;5027234;28;20049;-84
2021/05/20 08:32:38;;;;;;;27.50;21.48;;;16.30;99.90;;;;;;5027008;28;20132;-83
2021/05/20 08:35:06;;;;;;;28.45;21.42;;;16.40;99.90;;;;;;5026403;28;20069;-85
2021/05/20 08:37:34;;;;;;;25.73;21.90;;;16.40;99.90;;;;;;5024556;28;20394;-82
2021/05/20 08:40:01;;;;;;;26.67;21.05;;;16.30;99.90;;;;;;5025491;28;20139;-84
2021/05/20 08:42:30;;;;;;;30.67;21.58;;;16.30;99.90;;;;;;5022849;28;20060;-84
2021/05/20 08:44:57;;;;;;;23.65;19.85;;;16.20;99.90;;;;;;5025256;28;20085;-82
2021/05/20 08:47:23;;;;;;;27.05;21.05;;;16.20;99.90;;;;;;5022652;28;20429;-81
2021/05/20 08:49:50;;;;;;;26.17;21.20;;;16.10;99.90;;;;;;5022397;28;20096;-82
2021/05/20 08:52:16;;;;;;;24.83;20.63;;;16.10;99.90;;;;;;5019914;28;20050;-80
2021/05/20 08:54:43;;;;;;;25.90;18.33;;;16.20;99.90;;;;;;5020803;28;20058;-82
2021/05/20 08:57:09;;;;;;;22.98;19.50;;;16.70;99.90;;;;;;5021215;28;20081;-82
2021/05/20 08:59:36;;;;;;;23.58;19.65;;;17.10;99.90;;;;;;5019950;28;20049;-81
2021/05/20 09:02:03;;;;;;;22.95;19.25;;;17.30;99.90;;;;;;5020696;28;20053;-81
2021/05/20 09:04:30;;;;;;;25.35;20.75;;;17.10;99.90;;;;;;5019523;28;20441;-79
2021/05/20 09:07:00;;;;;;;24.40;20.00;;;16.90;99.90;;;;;;5020297;28;20053;-79
2021/05/20 09:09:33;;;;;;;25.25;19.10;;;17.10;99.90;;;;;;5020176;28;20046;-77
2021/05/20 09:12:00;;;;;;;22.05;18.45;;;17.30;99.90;;;;;;5020530;28;20403;-78
2021/05/20 09:14:31;;;;;;;22.20;17.70;;;18.10;99.90;;;;;;5018991;28;20060;-79
2021/05/20 09:17:12;;;;;;;22.98;18.60;;;18.70;99.90;;;;;;5020865;28;20073;-82
2021/05/20 09:19:38;;;;;;;23.90;17.58;;;18.60;99.90;;;;;;5021189;28;20076;-82
2021/05/20 09:22:06;;;;;;;19.73;16.27;;;18.40;99.90;;;;;;5020273;28;20058;-81
2021/05/20 09:24:50;;;;;;;21.85;17.08;;;18.30;99.90;;;;;;5019993;28;20399;-80
2021/05/20 09:27:28;;;;;;;21.05;17.40;;;18.10;99.90;;;;;;5019853;28;20144;-80
2021/05/20 09:30:17;;;;;;;19.65;16.88;;;18.00;99.90;;;;;;5021068;28;20046;-83
2021/05/20 09:32:48;;;;;;;19.10;16.15;;;18.10;99.90;;;;;;5020763;28;20111;-82
2021/05/20 09:35:15;;;;;;;18.42;15.38;;;18.40;99.90;;;;;;5018854;28;20053;-83
2021/05/20 09:37:48;;;;;;;20.90;17.40;;;18.90;99.90;;;;;;5019611;28;20077;-83
2021/05/20 09:40:15;;;;;;;16.63;14.63;;;19.00;99.90;;;;;;5019914;28;20106;-82
2021/05/20 09:42:42;;;;;;;18.85;16.17;;;19.40;99.90;;;;;;5019649;28;20141;-80
2021/05/20 09:45:11;;;;;;;19.65;15.40;;;19.80;99.90;;;;;;5020210;28;20053;-80
2021/05/20 09:47:38;;;;;;;18.63;16.52;;;19.90;99.90;;;;;;5020320;28;20537;-82
2021/05/20 09:50:07;;;;;;;19.42;16.02;;;20.10;99.90;;;;;;5018823;28;20042;-80
2021/05/20 09:52:34;;;;;;;19.92;16.05;;;20.20;99.90;;;;;;5020993;28;20141;-81
2021/05/20 09:55:00;;;;;;;17.75;14.90;;;20.10;99.90;;;;;;5023930;28;20104;-82
2021/05/20 09:57:30;;;;;;;15.68;13.57;;;19.70;99.90;;;;;;5023733;28;20131;-82
2021/05/20 10:00:01;;;;;;;18.10;14.60;;;19.40;99.90;;;;;;5024174;28;20057;-81
2021/05/20 10:02:27;;;;;;;15.88;13.57;;;19.00;99.90;;;;;;5025945;28;20046;-83
2021/05/20 10:04:54;;;;;;;17.20;14.27;;;18.80;99.90;;;;;;5026055;28;20050;-83
2021/05/20 10:07:32;;;;;;;14.98;12.35;;;18.70;99.90;;;;;;5026123;28;20054;-84
2021/05/20 10:09:59;;;;;;;14.73;11.80;;;18.50;99.90;;;;;;5026503;28;20085;-82
2021/05/20 10:12:26;;;;;;;16.90;12.15;;;18.30;99.90;;;;;;5024538;28;20050;-82
2021/05/20 10:14:53;;;;;;;15.80;13.65;;;18.30;99.90;;;;;;5023353;28;20057;-79
2021/05/20 10:17:21;;;;;;;18.92;13.73;;;18.30;99.90;;;;;;5023473;28;20253;-83
2021/05/20 10:19:47;;;;;;;16.92;14.52;;;18.00;99.90;;;;;;5025619;28;20137;-83
2021/05/20 10:22:14;;;;;;;15.88;13.82;;;18.00;99.90;;;;;;5026199;28;20054;-82
2021/05/20 10:24:46;;;;;;;18.00;14.13;;;17.90;99.90;;;;;;5028604;28;20058;-83
2021/05/20 10:27:12;;;;;;;18.88;14.90;;;17.50;99.90;;;;;;5035417;28;20042;-83
2021/05/20 10:29:39;;;;;;;17.40;14.57;;;17.40;99.90;;;;;;5034532;28;20141;-84
2021/05/20 10:32:06;;;;;;;16.67;14.65;;;17.50;99.90;;;;;;5034305;28;20057;-83
2021/05/20 10:34:33;;;;;;;16.65;12.57;;;17.60;99.90;;;;;;5033601;28;20057;-84
2021/05/20 10:37:03;;;;;;;15.27;11.38;;;17.90;99.90;;;;;;5027745;28;20085;-84
2021/05/20 10:39:29;;;;;;;14.13;10.77;;;18.10;99.90;;;;;;5030482;28;20045;-80
2021/05/20 10:41:57;;;;;;;17.15;12.63;;;18.20;99.90;;;;;;5028758;28;20073;-86
2021/05/20 10:44:25;;;;;;;13.02;11.63;;;18.20;99.90;;;;;;5035087;28;20088;-84
2021/05/20 10:47:02;;;;;;;14.80;11.20;;;18.10;99.90;;;;;;5032203;28;20108;-85
2021/05/20 10:50:00;;;;;;;10.57;8.35;;;17.90;99.90;;;;;;5026256;28;20046;-85
2021/05/20 10:52:43;;;;;;;12.10;8.60;;;17.80;99.90;;;;;;5026540;28;20088;-82
2021/05/20 10:55:10;;;;;;;11.40;8.90;;;17.70;99.90;;;;;;5026068;28;20081;-83
2021/05/20 10:57:57;;;;;;;12.32;10.35;;;17.70;99.90;;;;;;5025664;28;20050;-83
2021/05/20 11:00:39;;;;;;;12.13;9.07;;;17.90;99.90;;;;;;5028772;28;20303;-84
2021/05/20 11:03:05;;;;;;;9.80;8.23;;;18.00;99.90;;;;;;5026871;28;20114;-84
2021/05/20 11:05:57;;;;;;;9.63;6.72;;;17.90;99.90;;;;;;5027018;28;20081;-84
2021/05/20 11:08:57;;;;;;;8.32;5.90;;;18.00;99.90;;;;;;5024285;28;20057;-83
2021/05/20 11:11:48;;;;;;;7.72;6.07;;;18.30;99.90;;;;;;5026864;28;20078;-82
2021/05/20 11:14:36;;;;;;;7.55;5.78;;;18.60;99.90;;;;;;5026814;28;20053;-83
2021/05/20 11:17:46;;;;;;;8.02;6.32;;;18.80;99.90;;;;;;5025333;28;20053;-83
2021/05/20 11:20:31;;;;;;;7.45;5.63;;;18.90;99.90;;;;;;5025674;28;20081;-83
2021/05/20 11:23:26;;;;;;;8.75;6.30;;;19.00;99.90;;;;;;5022572;28;20544;-81
2021/05/20 11:26:12;;;;;;;11.85;6.68;;;19.20;99.90;;;;;;5023697;28;20050;-80
2021/05/20 11:28:55;;;;;;;8.50;7.18;;;19.10;99.90;;;;;;5024246;28;20078;-82
2021/05/20 11:31:23;;;;;;;9.45;6.07;;;19.10;99.90;;;;;;5023376;28;20045;-82
2021/05/20 11:36:57;;;;;;;7.43;5.30;;;19.00;99.90;;;;;;5023601;28;20038;-81
2021/05/20 11:39:23;;;;;;;7.38;5.03;;;18.90;99.90;;;;;;5020052;28;20046;-81
2021/05/20 11:41:51;;;;;;;8.05;5.47;;;18.90;99.90;;;;;;5022495;28;20050;-81
2021/05/20 11:44:19;;;;;;;10.95;7.53;;;19.00;99.90;;;;;;5023212;28;20061;-83
2021/05/20 11:46:49;;;;;;;9.73;6.07;;;19.00;99.90;;;;;;5023560;28;20082;-81
2021/05/20 11:49:19;;;;;;;9.15;5.60;;;18.90;99.90;;;;;;5024241;28;20081;-81
2021/05/20 11:51:48;;;;;;;8.10;5.70;;;18.90;99.90;;;;;;5021040;28;20053;-80
2021/05/20 11:54:17;;;;;;;14.98;9.82;;;18.90;99.90;;;;;;5019486;28;20133;-82
2021/05/20 11:56:49;;;;;;;5.93;4.95;;;18.90;99.90;;;;;;5022680;28;20399;-82
2021/05/20 11:59:16;;;;;;;8.20;5.28;;;18.90;99.90;;;;;;5024657;28;20429;-83
2021/05/20 12:01:45;;;;;;;6.72;5.03;;;18.90;99.90;;;;;;5025474;28;20054;-84
2021/05/20 12:04:12;;;;;;;10.63;5.15;;;18.90;99.90;;;;;;5025559;28;20053;-85
2021/05/20 12:06:39;;;;;;;5.78;4.88;;;19.00;99.90;;;;;;5024921;28;20080;-83
2021/05/20 12:09:11;;;;;;;8.48;4.35;;;19.10;99.90;;;;;;5025713;28;20080;-82
2021/05/20 12:11:39;;;;;;;5.57;4.13;;;19.40;99.90;;;;;;5023353;28;20050;-81
2021/05/20 12:14:28;;;;;;;5.18;4.25;;;19.40;99.90;;;;;;5024537;28;20050;-82
2021/05/20 12:17:13;;;;;;;5.65;4.00;;;19.70;99.90;;;;;;5025732;28;20049;-82
2021/05/20 12:19:43;;;;;;;5.07;3.80;;;19.90;99.90;;;;;;5026360;28;20076;-81
2021/05/20 12:22:18;;;;;;;10.15;3.65;;;20.10;99.90;;;;;;5024733;28;20113;-81
2021/05/20 12:24:45;;;;;;;10.23;4.40;;;19.90;99.90;;;;;;5023263;28;20061;-83
2021/05/20 12:27:21;;;;;;;5.50;4.65;;;19.70;99.90;;;;;;5025618;28;20062;-82
2021/05/20 12:29:49;;;;;;;6.47;4.18;;;19.70;99.90;;;;;;5022383;28;20056;-82
2021/05/20 12:32:35;;;;;;;8.02;4.18;;;19.60;99.90;;;;;;5022799;28;20058;-84
2021/05/20 12:35:29;;;;;;;6.68;4.18;;;19.70;99.90;;;;;;5022894;28;20057;-85
2021/05/20 12:38:06;;;;;;;9.88;3.90;;;19.70;99.90;;;;;;5013446;28;20058;-84
2021/05/20 12:40:36;;;;;;;8.80;4.85;;;19.80;99.90;;;;;;5031759;28;20046;-84
2021/05/20 12:43:09;;;;;;;5.22;4.10;;;19.90;99.90;;;;;;5028635;28;20060;-84
2021/05/20 12:45:40;;;;;;;5.07;4.30;;;20.00;99.90;;;;;;5026557;28;20057;-84
2021/05/20 12:48:19;;;;;;;5.38;3.80;;;20.20;99.90;;;;;;5021095;28;20054;-85
2021/05/20 12:50:46;;;;;;;5.35;3.65;;;20.20;99.90;;;;;;5021230;28;20514;-85